Laval-Entrammes Airport

LFOV · Mayenne, Paesi della Loira, Francia

Storia di METAR LFOV · Laval-Entrammes Airport

Di seguito sono riportati i METAR degli ultimi giorni. Seleziona un anno per sfogliare i METAR più vecchi, dall'anno 2007 in poi.

24 luglio 2024

Tempo Codice Tempo meteorologico Temp. Vista Base nuvolosa Vento METAR/SPECI
17:00
V
23 °C 10 km+ - Var Var 3 kt METAR LFOV 241500Z AUTO VRB03KT CAVOK 23/14 Q1020
16:30
V
23 °C 10 km+ 3.700 ft 220° 220° 3 kt METAR LFOV 241430Z AUTO 22003KT 170V260 9999 BKN037 23/14 Q1021
16:00
V
23 °C 10 km+ 3.500 ft Var Var 4 kt METAR LFOV 241400Z AUTO VRB04KT 9999 BKN035 23/14 Q1021
15:30
V
23 °C 10 km+ 3.500 ft Var Var 3 kt METAR LFOV 241330Z AUTO VRB03KT 9999 OVC035 23/15 Q1021
15:00
V
22 °C 10 km+ 3.300 ft Var Var 3 kt METAR LFOV 241300Z AUTO VRB03KT 9999 OVC033 22/14 Q1022
14:30
V
21 °C 10 km+ 3.200 ft Var Var 2 kt METAR LFOV 241230Z AUTO VRB02KT 9999 OVC032 21/14 Q1022
14:00
V
21 °C 10 km+ 3.300 ft Var Var 1 kt METAR LFOV 241200Z AUTO VRB01KT 9999 OVC033 21/14 Q1022
13:30
V
20 °C 10 km+ 3.100 ft Var Var 2 kt METAR LFOV 241130Z AUTO VRB02KT 9999 OVC031 20/14 Q1022
13:00
V
20 °C 10 km+ 3.200 ft 170° 170° 3 kt METAR LFOV 241100Z AUTO 17003KT 130V250 9999 OVC032 20/13 Q1022
12:30
V
20 °C 10 km+ 3.200 ft Var Var 2 kt METAR LFOV 241030Z AUTO VRB02KT 9999 FEW026 OVC032 20/14 Q1022
12:00
V
20 °C 10 km+ 3.200 ft Var Var 2 kt METAR LFOV 241000Z AUTO VRB02KT 9999 FEW024 OVC032 20/14 Q1023
11:30
V
19 °C 10 km+ 3.200 ft Var Var 2 kt METAR LFOV 240930Z AUTO VRB02KT 9999 FEW021 OVC032 19/15 Q1023
11:00
V
19 °C 10 km+ 3.100 ft Var Var 2 kt METAR LFOV 240900Z AUTO VRB02KT 9999 OVC031 19/15 Q1023
10:30
V
18 °C 10 km+ 3.100 ft 090° 090° 4 kt METAR LFOV 240830Z AUTO 09004KT 060V120 9999 OVC031 18/14 Q1023
10:00
M
17 °C 10 km+ 2.600 ft Var Var 3 kt METAR LFOV 240800Z AUTO VRB03KT 9999 BKN026 OVC032 17/14 Q1023
09:30
M
17 °C 10 km+ 2.400 ft Var Var 2 kt METAR LFOV 240730Z AUTO VRB02KT 9999 OVC024 17/15 Q1023
09:00
M
15 °C 10 km+ 2.600 ft 020° 020° 3 kt METAR LFOV 240700Z AUTO 02003KT 350V050 9999 OVC026 15/14 Q1023
08:30
M
14 °C 10 km+ 2.300 ft 360° 360° 3 kt METAR LFOV 240630Z AUTO 36003KT 310V020 9999 BKN023 14/13 Q1023
08:00
M
13 °C 10 km+ 2.200 ft 350° 350° 3 kt METAR LFOV 240600Z AUTO 35003KT 320V020 9999 OVC022 13/13 Q1023
07:30
V
12 °C 10 km+ - 360° 360° 4 kt METAR LFOV 240530Z AUTO 36004KT 9999 FEW021 12/12 Q1023
07:00
V
12 °C 10 km+ - 350° 350° 4 kt METAR LFOV 240500Z AUTO 35004KT 9999 FEW021 12/11 Q1023
06:30
V
12 °C 10 km+ - 360° 360° 4 kt METAR LFOV 240430Z AUTO 36004KT CAVOK 12/11 Q1023
06:00
V
12 °C 10 km+ - 340° 340° 3 kt METAR LFOV 240400Z AUTO 34003KT CAVOK 12/11 Q1023
05:30
V
12 °C 10 km+ - 350° 350° 4 kt METAR LFOV 240330Z AUTO 35004KT CAVOK 12/11 Q1023
05:00
V
12 °C 10 km+ - 340° 340° 4 kt METAR LFOV 240300Z AUTO 34004KT CAVOK 12/12 Q1023
04:30
V
12 °C 10 km+ - 350° 350° 4 kt METAR LFOV 240230Z AUTO 35004KT CAVOK 12/12 Q1023
04:00
V
13 °C 10 km+ - 350° 350° 4 kt METAR LFOV 240200Z AUTO 35004KT CAVOK 13/12 Q1023
03:30
V
13 °C 10 km+ - 340° 340° 5 kt METAR LFOV 240130Z AUTO 34005KT CAVOK 13/12 Q1023
03:00
V
13 °C 10 km+ - 350° 350° 3 kt METAR LFOV 240100Z AUTO 35003KT CAVOK 13/12 Q1023
02:30
V
13 °C 10 km+ - Var Var 2 kt METAR LFOV 240030Z AUTO VRB02KT CAVOK 13/12 Q1023
02:00
V
14 °C 10 km+ - 320° 320° 5 kt METAR LFOV 240000Z AUTO 32005KT CAVOK 14/12 Q1023
01:30
V
14 °C 10 km+ - 330° 330° 5 kt METAR LFOV 232330Z AUTO 33005KT CAVOK 14/12 Q1023
01:00
V
14 °C 10 km+ - 340° 340° 6 kt METAR LFOV 232300Z AUTO 34006KT CAVOK 14/12 Q1024
00:30
V
15 °C 10 km+ - 330° 330° 6 kt METAR LFOV 232230Z AUTO 33006KT CAVOK 15/12 Q1023
00:00
V
15 °C 10 km+ - 330° 330° 5 kt METAR LFOV 232200Z AUTO 33005KT CAVOK 15/12 Q1023

23 luglio 2024

Tempo Codice Tempo meteorologico Temp. Vista Base nuvolosa Vento METAR/SPECI
23:30
V
16 °C 10 km+ - 330° 330° 4 kt METAR LFOV 232130Z AUTO 33004KT 300V020 CAVOK 16/12 Q1023
23:00
V
16 °C 10 km+ - 330° 330° 5 kt METAR LFOV 232100Z AUTO 33005KT CAVOK 16/12 Q1023
22:30
V
16 °C 10 km+ - 360° 360° 6 kt METAR LFOV 232030Z AUTO 36006KT CAVOK 16/12 Q1023
22:00
V
17 °C 10 km+ - 350° 350° 8 kt METAR LFOV 232000Z AUTO 35008KT CAVOK 17/12 Q1023
21:30
V
18 °C 10 km+ - 340° 340° 8 kt METAR LFOV 231930Z AUTO 34008KT CAVOK 18/12 Q1023
21:00
V
19 °C 10 km+ - 340° 340° 9 kt METAR LFOV 231900Z AUTO 34009KT CAVOK 19/12 Q1023
20:30
V
19 °C 10 km+ - 350° 350° 9 kt METAR LFOV 231830Z AUTO 35009KT CAVOK 19/12 Q1022
20:00
V
20 °C 10 km+ - 350° 350° 10 kt METAR LFOV 231800Z AUTO 35010KT 320V020 CAVOK 20/13 Q1022
19:30
V
21 °C 10 km+ - 350° 350° 11 kt METAR LFOV 231730Z AUTO 35011KT 9999 FEW037 21/13 Q1022
19:00
V
21 °C 10 km+ 3.900 ft 330° 330° 9 kt METAR LFOV 231700Z AUTO 33009KT 290V360 9999 OVC039 21/14 Q1022
18:30
V
22 °C 10 km+ 3.900 ft 340° 340° 9 kt METAR LFOV 231630Z AUTO 34009KT 300V020 9999 OVC039 22/14 Q1022
18:00
V
22 °C 10 km+ 3.800 ft 340° 340° 10 kt METAR LFOV 231600Z AUTO 34010KT 310V010 9999 BKN038 22/14 Q1022
17:30
V
22 °C 10 km+ 4.200 ft 330° 330° 10 kt METAR LFOV 231530Z AUTO 33010KT 290V350 9999 SCT035 BKN042 22/15 Q1022
17:00
V
23 °C 10 km+ 3.800 ft 330° 330° 9 kt METAR LFOV 231500Z AUTO 33009KT 290V360 9999 BKN038 23/15 Q1022
16:30
V
22 °C 10 km+ 3.500 ft 340° 340° 9 kt METAR LFOV 231430Z AUTO 34009KT 300V010 9999 BKN035 OVC042 22/15 Q1022
16:00
V
23 °C 10 km+ 3.300 ft 330° 330° 8 kt METAR LFOV 231400Z AUTO 33008KT 290V360 9999 BKN033 23/16 Q1022
15:30
V
22 °C 10 km+ 4.000 ft 320° 320° 8 kt METAR LFOV 231330Z AUTO 32008KT 280V360 9999 SCT034 BKN040 22/15 Q1022
15:00
V
22 °C 10 km+ 3.400 ft 330° 330° 8 kt METAR LFOV 231300Z AUTO 33008KT 300V360 9999 BKN034 BKN041 22/15 Q1022
14:30
V
22 °C 10 km+ 4.100 ft 290° 290° 7 kt METAR LFOV 231230Z AUTO 29007KT 240V330 9999 FEW029 SCT035 BKN041 22/15 Q1022
14:00
M
22 °C 10 km+ 2.400 ft 310° 310° 7 kt METAR LFOV 231200Z AUTO 31007KT 250V340 9999 BKN024 BKN040 22/16 Q1022
13:30
M
21 °C 10 km+ 2.800 ft 290° 290° 5 kt METAR LFOV 231130Z AUTO 29005KT 230V330 9999 FEW016 BKN028 OVC041 21/17 Q1022
13:00
M
20 °C 10 km+ 2.000 ft 320° 320° 6 kt METAR LFOV 231100Z AUTO 32006KT 270V360 9999 BKN020 OVC026 20/16 Q1022
12:30
M
19 °C 10 km+ 1.700 ft 330° 330° 7 kt METAR LFOV 231030Z AUTO 33007KT 300V360 9999 BKN017 OVC022 19/16 Q1022
12:00
M
20 °C 10 km+ 1.600 ft 300° 300° 9 kt METAR LFOV 231000Z AUTO 30009KT 270V340 9999 BKN016 OVC021 20/17 Q1021
11:30
M
19 °C 10 km+ 1.400 ft 310° 310° 10 kt METAR LFOV 230930Z AUTO 31010KT 280V340 9999 BKN014 BKN022 BKN034 19/16 Q1021
11:00
M
19 °C 10 km+ 2.800 ft 310° 310° 9 kt METAR LFOV 230900Z AUTO 31009KT 9999 FEW011 SCT018 BKN028 19/17 Q1021
10:30
M
18 °C 10 km+ 1.200 ft 310° 310° 8 kt METAR LFOV 230830Z AUTO 31008KT 280V340 9999 SCT008 BKN012 BKN017 18/16 Q1021
10:00
I
19 °C 10 km+ 800 ft 260° 260° 9 kt METAR LFOV 230800Z AUTO 26009KT 9999 BKN008 OVC016 19/18 Q1021
09:30
I
18 °C 9 km 600 ft 250° 250° 8 kt METAR LFOV 230730Z AUTO 25008KT 9000 OVC006 18/18 Q1021
09:00
I
18 °C 4,3 km 600 ft 250° 250° 7 kt METAR LFOV 230700Z AUTO 25007KT 210V280 4300 BR OVC006 18/18 Q1021
08:30
I
18 °C 4,1 km 500 ft 250° 250° 8 kt METAR LFOV 230630Z AUTO 25008KT 220V280 4100 -DZ BR OVC005 18/18 Q1020
08:00
I
18 °C 3,9 km 500 ft 250° 250° 8 kt METAR LFOV 230600Z AUTO 25008KT 3900 -DZ BR OVC005 18/18 Q1020
07:30
L
18 °C 3,9 km 400 ft 240° 240° 7 kt METAR LFOV 230530Z AUTO 24007KT 200V270 3900 DZ BR OVC004 18/18 Q1020
07:00
L
18 °C 4,9 km 400 ft 230° 230° 8 kt METAR LFOV 230500Z AUTO 23008KT 200V270 4900 DZ BR OVC004 18/18 Q1020
06:30
L
18 °C 4,1 km 400 ft 220° 220° 7 kt METAR LFOV 230430Z AUTO 22007KT 180V250 4100 +DZ BR OVC004 18/18 Q1020
06:00
L
18 °C 4,9 km 300 ft 220° 220° 8 kt METAR LFOV 230400Z AUTO 22008KT 190V260 4900 DZ BR OVC003 18/18 Q1020
05:30
L
18 °C 6 km 300 ft 230° 230° 7 kt METAR LFOV 230330Z AUTO 23007KT 200V270 6000 -DZ OVC003 18/18 Q1020
05:00
L
18 °C 6 km 300 ft 220° 220° 8 kt METAR LFOV 230300Z AUTO 22008KT 6000 -DZ OVC003 18/18 Q1020
04:30
L
18 °C 4,6 km 300 ft 220° 220° 8 kt METAR LFOV 230230Z AUTO 22008KT 190V260 4600 BR OVC003 18/18 Q1020
04:00
L
18 °C 10 km+ 400 ft 220° 220° 9 kt METAR LFOV 230200Z AUTO 22009KT 190V250 9999 OVC004 18/18 Q1020
03:30
L
18 °C 5 km 400 ft 220° 220° 7 kt METAR LFOV 230130Z AUTO 22007KT 200V260 5000 BR OVC004 18/18 Q1020
03:00
L
18 °C 10 km+ 400 ft 220° 220° 8 kt METAR LFOV 230100Z AUTO 22008KT 9999 OVC004 18/17 Q1020
02:30
I
18 °C 10 km+ 500 ft 220° 220° 9 kt METAR LFOV 230030Z AUTO 22009KT 190V250 9999 OVC005 18/17 Q1020
02:00
I
18 °C 10 km+ 500 ft 220° 220° 8 kt METAR LFOV 230000Z AUTO 22008KT 190V250 9999 OVC005 18/17 Q1020
01:30
I
18 °C 10 km+ 500 ft 230° 230° 9 kt METAR LFOV 222330Z AUTO 23009KT 9999 OVC005 18/17 Q1021
01:00
I
18 °C 10 km+ 500 ft 220° 220° 8 kt METAR LFOV 222300Z AUTO 22008KT 9999 OVC005 18/17 Q1021
00:30
I
18 °C 10 km+ 500 ft 220° 220° 9 kt METAR LFOV 222230Z AUTO 22009KT 190V250 9999 OVC005 18/17 Q1021
00:00
I
18 °C 10 km+ 500 ft 220° 220° 9 kt METAR LFOV 222200Z AUTO 22009KT 190V250 9999 OVC005 18/17 Q1021

22 luglio 2024

Tempo Codice Tempo meteorologico Temp. Vista Base nuvolosa Vento METAR/SPECI
23:30
I
18 °C 10 km+ 600 ft 220° 220° 9 kt METAR LFOV 222130Z AUTO 22009KT 180V250 9999 OVC006 18/17 Q1021
23:00
I
19 °C 10 km+ 800 ft 210° 210° 10 kt METAR LFOV 222100Z AUTO 21010KT 9999 OVC008 19/17 Q1021
22:30
I
18 °C 10 km+ 800 ft 210° 210° 8 kt METAR LFOV 222030Z AUTO 21008KT 180V250 9999 OVC008 18/17 Q1021
22:00
I
19 °C 4,1 km 800 ft 210° 210° 9 kt METAR LFOV 222000Z AUTO 21009KT 4100 -RA BR OVC008 19/17 Q1021
21:30
I
19 °C 10 km+ 900 ft 210° 210° 8 kt METAR LFOV 221930Z AUTO 21008KT 9999 OVC009 19/17 Q1021
21:00
I
19 °C 10 km+ 800 ft 220° 220° 8 kt METAR LFOV 221900Z AUTO 22008KT 190V250 9999 OVC008 19/17 Q1021
20:30
I
18 °C 6 km 800 ft 220° 220° 9 kt METAR LFOV 221830Z AUTO 22009KT 6000 BKN008 BKN012 OVC021 18/17 Q1020
20:00
I
18 °C 10 km+ 800 ft 220° 220° 8 kt METAR LFOV 221800Z AUTO 22008KT 190V250 9999 BKN008 BKN012 OVC018 18/17 Q1020
19:30
M
19 °C 10 km+ 1.200 ft 230° 230° 10 kt METAR LFOV 221730Z AUTO 23010KT 200V260 9999 OVC012 19/17 Q1021
19:00
M
20 °C 10 km+ 1.500 ft 230° 230° 8 kt METAR LFOV 221700Z AUTO 23008KT 180V260 9999 BKN015 OVC021 20/17 Q1020
18:30
M
20 °C 10 km+ 1.700 ft 220° 220° 8 kt METAR LFOV 221630Z AUTO 22008KT 180V270 9999 BKN017 OVC022 20/17 Q1020
18:00
M
21 °C 10 km+ 2.200 ft 220° 220° 9 kt METAR LFOV 221600Z AUTO 22009KT 190V260 9999 OVC022 21/17 Q1021
17:30
M
22 °C 10 km+ 2.100 ft 240° 240° 11 kt METAR LFOV 221530Z AUTO 24011KT 210V270 9999 BKN021 OVC029 22/17 Q1021
17:00
M
21 °C 10 km+ 1.800 ft 220° 220° 8 kt METAR LFOV 221500Z AUTO 22008KT 200V260 9999 BKN018 OVC024 21/17 Q1021
16:30
M
20 °C 10 km+ 1.800 ft 230° 230° 7 kt METAR LFOV 221430Z AUTO 23007KT 190V270 9999 OVC018 20/16 Q1021
16:00
M
20 °C 10 km+ 1.900 ft 220° 220° 10 kt METAR LFOV 221400Z AUTO 22010KT 9999 BKN019 OVC024 20/16 Q1021
15:30
M
21 °C 10 km+ 2.000 ft 210° 210° 10 kt METAR LFOV 221330Z AUTO 21010KT 180V250 9999 BKN020 BKN025 OVC030 21/16 Q1021
15:00
M
20 °C 10 km+ 1.900 ft 220° 220° 7 kt METAR LFOV 221300Z AUTO 22007KT 160V250 9999 OVC019 20/16 Q1021
14:30
M
20 °C 10 km+ 1.900 ft 220° 220° 8 kt METAR LFOV 221230Z AUTO 22008KT 190V250 9999 OVC019 20/16 Q1021
14:00
M
20 °C 10 km+ 1.800 ft 220° 220° 7 kt METAR LFOV 221200Z AUTO 22007KT 180V260 9999 OVC018 20/16 Q1021
13:30
M
20 °C 10 km+ 1.900 ft 210° 210° 10 kt METAR LFOV 221130Z AUTO 21010KT 9999 OVC019 20/16 Q1021
13:00
M
19 °C 10 km+ 1.500 ft 230° 230° 9 kt METAR LFOV 221100Z AUTO 23009KT 200V260 9999 OVC015 19/16 Q1021
12:30
M
19 °C 10 km+ 1.500 ft 230° 230° 9 kt METAR LFOV 221030Z AUTO 23009KT 200V270 9999 OVC015 19/15 Q1021
12:00
M
18 °C 10 km+ 1.500 ft 210° 210° 8 kt METAR LFOV 221000Z AUTO 21008KT 190V250 9999 OVC015 18/15 Q1021
11:30
M
18 °C 10 km+ 1.500 ft 220° 220° 7 kt METAR LFOV 220930Z AUTO 22007KT 190V260 9999 OVC015 18/15 Q1020
11:00
M
18 °C 10 km+ 1.300 ft 230° 230° 8 kt METAR LFOV 220900Z AUTO 23008KT 9999 OVC013 18/15 Q1020
10:30
M
18 °C 10 km+ 1.400 ft 220° 220° 8 kt METAR LFOV 220830Z AUTO 22008KT 190V250 9999 OVC014 18/15 Q1020
Segnala modifiche